sensor_id;sensor_type;location;lat;lon;timestamp;P1;durP1;ratioP1;P2;durP2;ratioP2
20324;SDS011;10320;49.482;11.256;2023-07-20T00:02:07;7.07;;;6.18;;
20324;SDS011;10320;49.482;11.256;2023-07-20T00:04:33;6.95;;;6.30;;
20324;SDS011;10320;49.482;11.256;2023-07-20T00:06:59;6.70;;;6.05;;
20324;SDS011;10320;49.482;11.256;2023-07-20T00:09:28;7.22;;;6.50;;
20324;SDS011;10320;49.482;11.256;2023-07-20T00:11:54;7.70;;;6.60;;
20324;SDS011;10320;49.482;11.256;2023-07-20T00:14:20;7.22;;;6.50;;
20324;SDS011;10320;49.482;11.256;2023-07-20T00:16:46;6.95;;;6.13;;
20324;SDS011;10320;49.482;11.256;2023-07-20T00:19:14;7.13;;;6.53;;
20324;SDS011;10320;49.482;11.256;2023-07-20T00:21:41;7.35;;;6.65;;
20324;SDS011;10320;49.482;11.256;2023-07-20T00:24:07;8.80;;;6.53;;
20324;SDS011;10320;49.482;11.256;2023-07-20T00:26:33;7.20;;;6.60;;
20324;SDS011;10320;49.482;11.256;2023-07-20T00:28:59;7.47;;;6.78;;
20324;SDS011;10320;49.482;11.256;2023-07-20T00:31:25;6.80;;;6.20;;
20324;SDS011;10320;49.482;11.256;2023-07-20T00:33:52;7.22;;;6.50;;
20324;SDS011;10320;49.482;11.256;2023-07-20T00:36:18;7.75;;;7.03;;
20324;SDS011;10320;49.482;11.256;2023-07-20T00:38:44;7.43;;;6.60;;
20324;SDS011;10320;49.482;11.256;2023-07-20T00:41:09;6.97;;;6.38;;
20324;SDS011;10320;49.482;11.256;2023-07-20T00:43:35;7.47;;;6.88;;
20324;SDS011;10320;49.482;11.256;2023-07-20T00:46:01;7.65;;;6.10;;
20324;SDS011;10320;49.482;11.256;2023-07-20T00:48:29;8.45;;;6.85;;
20324;SDS011;10320;49.482;11.256;2023-07-20T00:50:55;7.10;;;6.43;;
20324;SDS011;10320;49.482;11.256;2023-07-20T00:53:21;7.93;;;6.43;;
20324;SDS011;10320;49.482;11.256;2023-07-20T00:55:47;7.87;;;6.80;;
20324;SDS011;10320;49.482;11.256;2023-07-20T00:58:13;7.38;;;6.75;;
20324;SDS011;10320;49.482;11.256;2023-07-20T01:00:39;7.45;;;6.65;;
20324;SDS011;10320;49.482;11.256;2023-07-20T01:03:05;7.83;;;7.03;;
20324;SDS011;10320;49.482;11.256;2023-07-20T01:05:42;7.20;;;6.50;;
20324;SDS011;10320;49.482;11.256;2023-07-20T01:08:17;7.37;;;6.70;;
20324;SDS011;10320;49.482;11.256;2023-07-20T01:10:44;8.13;;;7.30;;
20324;SDS011;10320;49.482;11.256;2023-07-20T01:13:12;7.23;;;6.60;;
20324;SDS011;10320;49.482;11.256;2023-07-20T01:15:40;7.03;;;6.43;;
20324;SDS011;10320;49.482;11.256;2023-07-20T01:18:06;8.47;;;7.47;;
20324;SDS011;10320;49.482;11.256;2023-07-20T01:20:33;7.90;;;7.13;;
20324;SDS011;10320;49.482;11.256;2023-07-20T01:33:07;7.50;;;6.80;;
20324;SDS011;10320;49.482;11.256;2023-07-20T01:35:33;7.63;;;6.83;;
20324;SDS011;10320;49.482;11.256;2023-07-20T01:38:00;9.30;;;7.13;;
20324;SDS011;10320;49.482;11.256;2023-07-20T01:40:26;8.57;;;7.67;;
20324;SDS011;10320;49.482;11.256;2023-07-20T01:42:52;8.70;;;7.77;;
20324;SDS011;10320;49.482;11.256;2023-07-20T01:45:18;9.47;;;7.87;;
20324;SDS011;10320;49.482;11.256;2023-07-20T01:47:46;8.83;;;7.90;;
20324;SDS011;10320;49.482;11.256;2023-07-20T01:50:12;8.67;;;7.30;;
20324;SDS011;10320;49.482;11.256;2023-07-20T01:52:38;10.57;;;7.50;;
20324;SDS011;10320;49.482;11.256;2023-07-20T01:55:04;8.40;;;7.53;;
20324;SDS011;10320;49.482;11.256;2023-07-20T01:57:30;8.43;;;7.63;;
20324;SDS011;10320;49.482;11.256;2023-07-20T01:59:56;8.37;;;7.40;;
20324;SDS011;10320;49.482;11.256;2023-07-20T02:02:23;8.33;;;7.57;;
20324;SDS011;10320;49.482;11.256;2023-07-20T02:04:49;8.23;;;7.43;;
20324;SDS011;10320;49.482;11.256;2023-07-20T02:07:15;7.80;;;6.97;;
20324;SDS011;10320;49.482;11.256;2023-07-20T02:09:41;9.57;;;8.67;;
20324;SDS011;10320;49.482;11.256;2023-07-20T02:12:07;10.23;;;9.17;;
20324;SDS011;10320;49.482;11.256;2023-07-20T02:14:33;11.00;;;9.13;;
20324;SDS011;10320;49.482;11.256;2023-07-20T02:16:59;9.20;;;8.40;;
20324;SDS011;10320;49.482;11.256;2023-07-20T02:19:26;10.70;;;9.27;;
20324;SDS011;10320;49.482;11.256;2023-07-20T02:21:52;11.63;;;8.70;;
20324;SDS011;10320;49.482;11.256;2023-07-20T02:24:18;9.30;;;8.30;;
20324;SDS011;10320;49.482;11.256;2023-07-20T02:26:44;9.73;;;8.67;;
20324;SDS011;10320;49.482;11.256;2023-07-20T02:29:10;9.77;;;8.87;;
20324;SDS011;10320;49.482;11.256;2023-07-20T02:31:37;8.23;;;7.53;;
20324;SDS011;10320;49.482;11.256;2023-07-20T02:34:04;10.23;;;8.77;;
20324;SDS011;10320;49.482;11.256;2023-07-20T02:36:30;10.67;;;8.90;;
20324;SDS011;10320;49.482;11.256;2023-07-20T02:38:57;8.97;;;8.07;;
20324;SDS011;10320;49.482;11.256;2023-07-20T02:41:24;9.30;;;8.47;;
20324;SDS011;10320;49.482;11.256;2023-07-20T02:43:50;9.27;;;8.33;;
20324;SDS011;10320;49.482;11.256;2023-07-20T02:46:16;9.67;;;8.03;;
20324;SDS011;10320;49.482;11.256;2023-07-20T02:48:42;8.30;;;7.53;;
20324;SDS011;10320;49.482;11.256;2023-07-20T02:51:08;8.80;;;7.90;;
20324;SDS011;10320;49.482;11.256;2023-07-20T02:53:34;8.47;;;7.67;;
20324;SDS011;10320;49.482;11.256;2023-07-20T02:56:00;8.50;;;7.70;;
20324;SDS011;10320;49.482;11.256;2023-07-20T02:58:26;9.18;;;7.63;;
20324;SDS011;10320;49.482;11.256;2023-07-20T03:00:52;8.67;;;7.70;;
20324;SDS011;10320;49.482;11.256;2023-07-20T03:03:18;8.55;;;7.75;;
20324;SDS011;10320;49.482;11.256;2023-07-20T03:05:45;8.80;;;8.07;;
20324;SDS011;10320;49.482;11.256;2023-07-20T03:08:11;8.90;;;8.10;;
20324;SDS011;10320;49.482;11.256;2023-07-20T03:10:38;8.57;;;7.77;;
20324;SDS011;10320;49.482;11.256;2023-07-20T03:13:05;9.17;;;7.63;;
20324;SDS011;10320;49.482;11.256;2023-07-20T03:15:31;8.33;;;7.53;;
20324;SDS011;10320;49.482;11.256;2023-07-20T03:17:58;8.70;;;7.90;;
20324;SDS011;10320;49.482;11.256;2023-07-20T03:20:24;8.93;;;8.23;;
20324;SDS011;10320;49.482;11.256;2023-07-20T03:22:50;8.90;;;8.00;;
20324;SDS011;10320;49.482;11.256;2023-07-20T03:25:16;10.20;;;9.20;;
20324;SDS011;10320;49.482;11.256;2023-07-20T03:27:42;12.07;;;9.27;;
20324;SDS011;10320;49.482;11.256;2023-07-20T03:30:09;10.43;;;9.37;;
20324;SDS011;10320;49.482;11.256;2023-07-20T03:32:36;11.33;;;9.03;;
20324;SDS011;10320;49.482;11.256;2023-07-20T03:35:02;9.70;;;8.70;;
20324;SDS011;10320;49.482;11.256;2023-07-20T03:37:28;10.03;;;8.93;;
20324;SDS011;10320;49.482;11.256;2023-07-20T03:39:54;9.97;;;9.00;;
20324;SDS011;10320;49.482;11.256;2023-07-20T03:42:20;9.70;;;8.53;;
20324;SDS011;10320;49.482;11.256;2023-07-20T03:44:46;8.90;;;8.00;;
20324;SDS011;10320;49.482;11.256;2023-07-20T03:47:12;9.47;;;8.53;;
20324;SDS011;10320;49.482;11.256;2023-07-20T03:49:38;9.87;;;8.00;;
20324;SDS011;10320;49.482;11.256;2023-07-20T03:52:04;9.20;;;8.30;;
20324;SDS011;10320;49.482;11.256;2023-07-20T03:54:30;9.10;;;8.20;;
20324;SDS011;10320;49.482;11.256;2023-07-20T03:56:56;9.27;;;8.27;;
20324;SDS011;10320;49.482;11.256;2023-07-20T03:59:23;9.17;;;8.27;;
20324;SDS011;10320;49.482;11.256;2023-07-20T04:01:49;8.80;;;8.00;;
20324;SDS011;10320;49.482;11.256;2023-07-20T04:04:15;10.03;;;9.03;;
20324;SDS011;10320;49.482;11.256;2023-07-20T04:06:42;9.07;;;8.17;;
20324;SDS011;10320;49.482;11.256;2023-07-20T04:09:11;9.07;;;8.27;;
20324;SDS011;10320;49.482;11.256;2023-07-20T04:11:37;9.50;;;8.53;;
20324;SDS011;10320;49.482;11.256;2023-07-20T04:14:03;9.50;;;8.60;;
20324;SDS011;10320;49.482;11.256;2023-07-20T04:16:29;9.57;;;8.57;;
20324;SDS011;10320;49.482;11.256;2023-07-20T04:18:56;11.40;;;9.23;;
20324;SDS011;10320;49.482;11.256;2023-07-20T04:21:22;9.83;;;8.77;;
20324;SDS011;10320;49.482;11.256;2023-07-20T04:23:48;10.23;;;9.30;;
20324;SDS011;10320;49.482;11.256;2023-07-20T04:26:14;9.20;;;8.33;;
20324;SDS011;10320;49.482;11.256;2023-07-20T04:28:40;10.53;;;9.53;;
20324;SDS011;10320;49.482;11.256;2023-07-20T04:31:14;11.50;;;10.37;;
20324;SDS011;10320;49.482;11.256;2023-07-20T04:33:40;10.37;;;9.50;;
20324;SDS011;10320;49.482;11.256;2023-07-20T04:36:06;11.07;;;9.87;;
20324;SDS011;10320;49.482;11.256;2023-07-20T04:38:33;11.57;;;9.37;;
20324;SDS011;10320;49.482;11.256;2023-07-20T04:40:59;10.40;;;9.47;;
20324;SDS011;10320;49.482;11.256;2023-07-20T04:43:25;10.57;;;9.57;;
20324;SDS011;10320;49.482;11.256;2023-07-20T04:45:51;10.18;;;9.27;;
20324;SDS011;10320;49.482;11.256;2023-07-20T04:48:17;10.10;;;9.10;;
20324;SDS011;10320;49.482;11.256;2023-07-20T04:50:44;10.20;;;8.70;;
20324;SDS011;10320;49.482;11.256;2023-07-20T04:53:11;10.10;;;8.57;;
20324;SDS011;10320;49.482;11.256;2023-07-20T04:55:38;10.83;;;8.70;;
20324;SDS011;10320;49.482;11.256;2023-07-20T04:58:04;10.03;;;9.00;;
20324;SDS011;10320;49.482;11.256;2023-07-20T05:00:31;10.17;;;8.97;;
20324;SDS011;10320;49.482;11.256;2023-07-20T05:02:57;9.20;;;8.27;;
20324;SDS011;10320;49.482;11.256;2023-07-20T05:05:23;8.50;;;7.75;;
20324;SDS011;10320;49.482;11.256;2023-07-20T05:07:49;8.37;;;7.67;;
20324;SDS011;10320;49.482;11.256;2023-07-20T05:10:16;8.95;;;7.97;;
20324;SDS011;10320;49.482;11.256;2023-07-20T05:12:43;8.23;;;7.43;;
20324;SDS011;10320;49.482;11.256;2023-07-20T05:15:09;9.47;;;7.60;;
20324;SDS011;10320;49.482;11.256;2023-07-20T05:17:35;8.68;;;7.53;;
20324;SDS011;10320;49.482;11.256;2023-07-20T05:20:02;8.65;;;7.50;;
20324;SDS011;10320;49.482;11.256;2023-07-20T05:22:29;7.82;;;6.97;;
20324;SDS011;10320;49.482;11.256;2023-07-20T05:24:56;9.88;;;7.25;;
20324;SDS011;10320;49.482;11.256;2023-07-20T05:27:22;9.52;;;7.50;;
20324;SDS011;10320;49.482;11.256;2023-07-20T05:29:48;7.53;;;6.70;;
20324;SDS011;10320;49.482;11.256;2023-07-20T05:32:14;8.07;;;6.77;;
20324;SDS011;10320;49.482;11.256;2023-07-20T05:34:40;9.02;;;7.07;;
20324;SDS011;10320;49.482;11.256;2023-07-20T05:37:06;7.18;;;6.50;;
20324;SDS011;10320;49.482;11.256;2023-07-20T05:39:32;9.45;;;7.18;;
20324;SDS011;10320;49.482;11.256;2023-07-20T05:41:59;9.15;;;6.38;;
20324;SDS011;10320;49.482;11.256;2023-07-20T05:44:25;7.30;;;5.75;;
20324;SDS011;10320;49.482;11.256;2023-07-20T05:46:50;7.55;;;5.68;;
20324;SDS011;10320;49.482;11.256;2023-07-20T05:49:16;7.47;;;5.97;;
20324;SDS011;10320;49.482;11.256;2023-07-20T05:51:43;7.27;;;5.90;;
20324;SDS011;10320;49.482;11.256;2023-07-20T05:54:09;7.05;;;6.30;;
20324;SDS011;10320;49.482;11.256;2023-07-20T05:56:35;6.68;;;5.47;;
20324;SDS011;10320;49.482;11.256;2023-07-20T05:59:00;8.18;;;5.22;;
20324;SDS011;10320;49.482;11.256;2023-07-20T06:01:26;7.95;;;5.30;;
20324;SDS011;10320;49.482;11.256;2023-07-20T06:03:53;6.13;;;5.30;;
20324;SDS011;10320;49.482;11.256;2023-07-20T06:06:19;6.22;;;5.10;;
20324;SDS011;10320;49.482;11.256;2023-07-20T06:08:44;6.55;;;5.30;;
20324;SDS011;10320;49.482;11.256;2023-07-20T06:11:10;6.32;;;5.00;;
20324;SDS011;10320;49.482;11.256;2023-07-20T06:13:36;6.78;;;4.82;;
20324;SDS011;10320;49.482;11.256;2023-07-20T06:16:02;6.82;;;5.00;;
20324;SDS011;10320;49.482;11.256;2023-07-20T06:18:28;5.55;;;4.65;;
20324;SDS011;10320;49.482;11.256;2023-07-20T06:20:55;7.40;;;4.90;;
20324;SDS011;10320;49.482;11.256;2023-07-20T06:23:21;5.25;;;4.45;;
20324;SDS011;10320;49.482;11.256;2023-07-20T06:25:46;6.07;;;4.65;;
20324;SDS011;10320;49.482;11.256;2023-07-20T06:28:12;5.40;;;4.90;;
20324;SDS011;10320;49.482;11.256;2023-07-20T06:30:38;5.18;;;4.70;;
20324;SDS011;10320;49.482;11.256;2023-07-20T06:33:04;6.05;;;4.82;;
20324;SDS011;10320;49.482;11.256;2023-07-20T06:35:31;7.97;;;4.72;;
20324;SDS011;10320;49.482;11.256;2023-07-20T06:37:57;7.50;;;5.35;;
20324;SDS011;10320;49.482;11.256;2023-07-20T06:40:25;7.47;;;4.40;;
20324;SDS011;10320;49.482;11.256;2023-07-20T06:42:51;6.57;;;4.72;;
20324;SDS011;10320;49.482;11.256;2023-07-20T06:45:16;5.25;;;4.47;;
20324;SDS011;10320;49.482;11.256;2023-07-20T06:47:42;6.10;;;4.95;;
20324;SDS011;10320;49.482;11.256;2023-07-20T06:50:08;6.65;;;5.35;;
20324;SDS011;10320;49.482;11.256;2023-07-20T06:52:34;6.25;;;5.05;;
20324;SDS011;10320;49.482;11.256;2023-07-20T06:55:00;7.03;;;5.45;;
20324;SDS011;10320;49.482;11.256;2023-07-20T06:57:26;9.65;;;5.55;;
20324;SDS011;10320;49.482;11.256;2023-07-20T06:59:52;5.30;;;4.75;;
20324;SDS011;10320;49.482;11.256;2023-07-20T07:02:18;6.88;;;4.78;;
20324;SDS011;10320;49.482;11.256;2023-07-20T07:04:44;7.07;;;5.00;;
20324;SDS011;10320;49.482;11.256;2023-07-20T07:07:11;6.70;;;4.95;;
20324;SDS011;10320;49.482;11.256;2023-07-20T07:09:40;7.88;;;4.55;;
20324;SDS011;10320;49.482;11.256;2023-07-20T07:12:07;7.25;;;4.50;;
20324;SDS011;10320;49.482;11.256;2023-07-20T07:14:33;5.45;;;4.40;;
20324;SDS011;10320;49.482;11.256;2023-07-20T07:16:59;5.10;;;4.30;;
20324;SDS011;10320;49.482;11.256;2023-07-20T07:19:25;6.78;;;4.50;;
20324;SDS011;10320;49.482;11.256;2023-07-20T07:21:51;5.13;;;4.25;;
20324;SDS011;10320;49.482;11.256;2023-07-20T07:24:17;7.03;;;4.47;;
20324;SDS011;10320;49.482;11.256;2023-07-20T07:26:42;4.22;;;3.70;;
20324;SDS011;10320;49.482;11.256;2023-07-20T07:29:08;5.38;;;3.70;;
20324;SDS011;10320;49.482;11.256;2023-07-20T07:31:34;4.82;;;3.97;;
20324;SDS011;10320;49.482;11.256;2023-07-20T07:34:01;5.93;;;3.70;;
20324;SDS011;10320;49.482;11.256;2023-07-20T07:36:28;5.85;;;3.95;;
20324;SDS011;10320;49.482;11.256;2023-07-20T07:38:53;4.47;;;4.05;;
20324;SDS011;10320;49.482;11.256;2023-07-20T07:41:19;4.45;;;3.55;;
20324;SDS011;10320;49.482;11.256;2023-07-20T07:43:46;5.05;;;3.95;;
20324;SDS011;10320;49.482;11.256;2023-07-20T07:46:11;4.88;;;3.58;;
20324;SDS011;10320;49.482;11.256;2023-07-20T07:48:37;4.82;;;3.15;;
20324;SDS011;10320;49.482;11.256;2023-07-20T07:51:03;6.15;;;3.35;;
20324;SDS011;10320;49.482;11.256;2023-07-20T07:53:28;5.35;;;3.55;;
20324;SDS011;10320;49.482;11.256;2023-07-20T07:55:54;4.25;;;3.08;;
20324;SDS011;10320;49.482;11.256;2023-07-20T07:58:20;5.85;;;3.33;;
20324;SDS011;10320;49.482;11.256;2023-07-20T08:00:46;3.65;;;3.35;;
20324;SDS011;10320;49.482;11.256;2023-07-20T08:03:13;4.65;;;3.05;;
20324;SDS011;10320;49.482;11.256;2023-07-20T08:05:39;5.80;;;3.15;;
20324;SDS011;10320;49.482;11.256;2023-07-20T08:08:05;3.72;;;2.90;;
20324;SDS011;10320;49.482;11.256;2023-07-20T08:10:31;4.63;;;2.97;;
20324;SDS011;10320;49.482;11.256;2023-07-20T08:12:57;4.32;;;2.60;;
20324;SDS011;10320;49.482;11.256;2023-07-20T08:15:23;4.22;;;2.75;;
20324;SDS011;10320;49.482;11.256;2023-07-20T08:17:49;3.30;;;3.00;;
20324;SDS011;10320;49.482;11.256;2023-07-20T08:20:16;4.63;;;2.80;;
20324;SDS011;10320;49.482;11.256;2023-07-20T08:22:43;4.18;;;2.50;;
20324;SDS011;10320;49.482;11.256;2023-07-20T08:25:09;6.88;;;2.65;;
20324;SDS011;10320;49.482;11.256;2023-07-20T08:27:36;3.67;;;2.35;;
20324;SDS011;10320;49.482;11.256;2023-07-20T08:30:03;3.58;;;2.30;;
20324;SDS011;10320;49.482;11.256;2023-07-20T08:32:33;2.83;;;2.20;;
20324;SDS011;10320;49.482;11.256;2023-07-20T08:34:59;3.95;;;2.53;;
20324;SDS011;10320;49.482;11.256;2023-07-20T08:37:25;4.80;;;2.70;;
20324;SDS011;10320;49.482;11.256;2023-07-20T08:39:51;2.75;;;2.47;;
20324;SDS011;10320;49.482;11.256;2023-07-20T08:42:17;3.80;;;2.22;;
20324;SDS011;10320;49.482;11.256;2023-07-20T08:44:43;4.50;;;2.60;;
20324;SDS011;10320;49.482;11.256;2023-07-20T08:47:10;4.88;;;2.72;;
20324;SDS011;10320;49.482;11.256;2023-07-20T08:49:37;2.85;;;2.47;;
20324;SDS011;10320;49.482;11.256;2023-07-20T08:52:05;3.95;;;2.45;;
20324;SDS011;10320;49.482;11.256;2023-07-20T08:54:31;3.47;;;2.38;;
20324;SDS011;10320;49.482;11.256;2023-07-20T08:57:04;3.05;;;2.47;;
20324;SDS011;10320;49.482;11.256;2023-07-20T08:59:31;4.10;;;2.63;;
20324;SDS011;10320;49.482;11.256;2023-07-20T09:02:00;3.47;;;2.40;;
20324;SDS011;10320;49.482;11.256;2023-07-20T09:04:27;3.58;;;2.60;;
20324;SDS011;10320;49.482;11.256;2023-07-20T09:06:53;4.30;;;2.90;;
20324;SDS011;10320;49.482;11.256;2023-07-20T09:09:19;3.97;;;2.53;;
20324;SDS011;10320;49.482;11.256;2023-07-20T09:11:49;5.85;;;2.50;;
20324;SDS011;10320;49.482;11.256;2023-07-20T09:14:15;4.13;;;2.47;;
20324;SDS011;10320;49.482;11.256;2023-07-20T09:16:59;3.22;;;2.22;;
20324;SDS011;10320;49.482;11.256;2023-07-20T09:19:25;3.40;;;2.50;;
20324;SDS011;10320;49.482;11.256;2023-07-20T09:21:51;2.75;;;1.90;;
20324;SDS011;10320;49.482;11.256;2023-07-20T09:24:18;3.25;;;2.25;;
20324;SDS011;10320;49.482;11.256;2023-07-20T09:26:45;3.38;;;2.28;;
20324;SDS011;10320;49.482;11.256;2023-07-20T09:29:13;2.67;;;1.85;;
20324;SDS011;10320;49.482;11.256;2023-07-20T09:31:39;3.78;;;2.60;;
20324;SDS011;10320;49.482;11.256;2023-07-20T09:34:05;4.60;;;2.30;;
20324;SDS011;10320;49.482;11.256;2023-07-20T09:36:35;4.43;;;2.38;;
20324;SDS011;10320;49.482;11.256;2023-07-20T09:39:02;4.25;;;2.22;;
20324;SDS011;10320;49.482;11.256;2023-07-20T09:41:29;3.25;;;2.00;;
20324;SDS011;10320;49.482;11.256;2023-07-20T09:43:55;2.67;;;2.30;;
20324;SDS011;10320;49.482;11.256;2023-07-20T09:46:21;3.17;;;1.80;;
20324;SDS011;10320;49.482;11.256;2023-07-20T09:48:54;1.90;;;1.80;;
20324;SDS011;10320;49.482;11.256;2023-07-20T09:51:21;4.53;;;1.80;;
20324;SDS011;10320;49.482;11.256;2023-07-20T09:53:48;3.67;;;2.00;;
20324;SDS011;10320;49.482;11.256;2023-07-20T09:56:15;2.00;;;1.90;;
20324;SDS011;10320;49.482;11.256;2023-07-20T09:58:43;2.65;;;1.88;;
20324;SDS011;10320;49.482;11.256;2023-07-20T10:01:10;2.25;;;2.05;;
20324;SDS011;10320;49.482;11.256;2023-07-20T10:03:36;2.30;;;2.10;;
20324;SDS011;10320;49.482;11.256;2023-07-20T10:06:05;3.28;;;1.70;;
20324;SDS011;10320;49.482;11.256;2023-07-20T10:08:33;3.13;;;1.85;;
20324;SDS011;10320;49.482;11.256;2023-07-20T10:11:02;3.38;;;1.83;;
20324;SDS011;10320;49.482;11.256;2023-07-20T10:13:28;2.15;;;1.60;;
20324;SDS011;10320;49.482;11.256;2023-07-20T10:16:02;2.05;;;1.40;;
20324;SDS011;10320;49.482;11.256;2023-07-20T10:18:30;3.95;;;2.03;;
20324;SDS011;10320;49.482;11.256;2023-07-20T10:20:57;2.58;;;1.67;;
20324;SDS011;10320;49.482;11.256;2023-07-20T10:23:25;2.40;;;1.70;;
20324;SDS011;10320;49.482;11.256;2023-07-20T10:25:52;1.75;;;1.60;;
20324;SDS011;10320;49.482;11.256;2023-07-20T10:28:18;1.70;;;1.50;;
20324;SDS011;10320;49.482;11.256;2023-07-20T10:30:44;2.83;;;1.95;;
20324;SDS011;10320;49.482;11.256;2023-07-20T10:33:10;1.42;;;1.33;;
20324;SDS011;10320;49.482;11.256;2023-07-20T10:35:55;2.35;;;1.50;;
20324;SDS011;10320;49.482;11.256;2023-07-20T10:38:41;2.22;;;1.42;;
20324;SDS011;10320;49.482;11.256;2023-07-20T10:41:28;2.47;;;1.67;;
20324;SDS011;10320;49.482;11.256;2023-07-20T10:44:03;2.40;;;1.42;;
20324;SDS011;10320;49.482;11.256;2023-07-20T10:46:50;1.63;;;1.30;;
20324;SDS011;10320;49.482;11.256;2023-07-20T10:49:15;3.15;;;1.45;;
20324;SDS011;10320;49.482;11.256;2023-07-20T10:51:42;1.95;;;1.38;;
20324;SDS011;10320;49.482;11.256;2023-07-20T10:54:12;1.27;;;1.17;;
20324;SDS011;10320;49.482;11.256;2023-07-20T10:56:55;2.38;;;1.23;;
20324;SDS011;10320;49.482;11.256;2023-07-20T11:01:47;1.90;;;1.80;;
20324;SDS011;10320;49.482;11.256;2023-07-20T11:04:16;1.65;;;1.38;;
20324;SDS011;10320;49.482;11.256;2023-07-20T11:06:46;1.30;;;1.20;;
20324;SDS011;10320;49.482;11.256;2023-07-20T11:09:21;1.77;;;1.20;;
20324;SDS011;10320;49.482;11.256;2023-07-20T11:11:50;2.97;;;1.42;;
20324;SDS011;10320;49.482;11.256;2023-07-20T11:17:14;1.70;;;1.30;;
20324;SDS011;10320;49.482;11.256;2023-07-20T11:19:41;2.50;;;1.50;;
20324;SDS011;10320;49.482;11.256;2023-07-20T11:22:07;1.35;;;1.25;;
20324;SDS011;10320;49.482;11.256;2023-07-20T11:24:33;1.42;;;1.30;;
20324;SDS011;10320;49.482;11.256;2023-07-20T11:26:59;1.60;;;1.33;;
20324;SDS011;10320;49.482;11.256;2023-07-20T11:29:26;1.27;;;1.17;;
20324;SDS011;10320;49.482;11.256;2023-07-20T11:31:52;1.58;;;1.30;;
20324;SDS011;10320;49.482;11.256;2023-07-20T11:34:19;1.50;;;1.40;;
20324;SDS011;10320;49.482;11.256;2023-07-20T11:36:47;1.40;;;1.30;;
20324;SDS011;10320;49.482;11.256;2023-07-20T11:39:16;1.67;;;1.45;;
20324;SDS011;10320;49.482;11.256;2023-07-20T11:41:47;1.60;;;1.25;;
20324;SDS011;10320;49.482;11.256;2023-07-20T11:44:18;1.80;;;1.23;;
20324;SDS011;10320;49.482;11.256;2023-07-20T11:46:45;2.28;;;1.35;;
20324;SDS011;10320;49.482;11.256;2023-07-20T11:49:11;1.40;;;1.30;;
20324;SDS011;10320;49.482;11.256;2023-07-20T11:51:38;1.83;;;1.20;;
20324;SDS011;10320;49.482;11.256;2023-07-20T11:54:05;1.40;;;1.17;;
20324;SDS011;10320;49.482;11.256;2023-07-20T11:56:32;1.48;;;1.20;;
20324;SDS011;10320;49.482;11.256;2023-07-20T11:58:58;3.38;;;1.40;;
20324;SDS011;10320;49.482;11.256;2023-07-20T12:01:28;2.03;;;1.40;;
20324;SDS011;10320;49.482;11.256;2023-07-20T12:03:56;2.17;;;1.40;;
20324;SDS011;10320;49.482;11.256;2023-07-20T12:06:24;4.85;;;1.80;;
20324;SDS011;10320;49.482;11.256;2023-07-20T12:08:50;1.65;;;1.50;;
20324;SDS011;10320;49.482;11.256;2023-07-20T12:11:30;2.28;;;1.40;;
20324;SDS011;10320;49.482;11.256;2023-07-20T12:14:00;1.92;;;1.67;;
20324;SDS011;10320;49.482;11.256;2023-07-20T12:16:29;1.98;;;1.48;;
20324;SDS011;10320;49.482;11.256;2023-07-20T12:19:02;4.10;;;1.83;;
20324;SDS011;10320;49.482;11.256;2023-07-20T12:21:30;1.40;;;1.30;;
20324;SDS011;10320;49.482;11.256;2023-07-20T12:23:57;3.05;;;1.40;;
20324;SDS011;10320;49.482;11.256;2023-07-20T12:26:23;1.42;;;1.33;;
20324;SDS011;10320;49.482;11.256;2023-07-20T12:28:50;2.67;;;1.55;;
20324;SDS011;10320;49.482;11.256;2023-07-20T12:31:16;2.08;;;1.40;;
20324;SDS011;10320;49.482;11.256;2023-07-20T12:33:42;2.08;;;1.30;;
20324;SDS011;10320;49.482;11.256;2023-07-20T12:36:08;1.60;;;1.42;;
20324;SDS011;10320;49.482;11.256;2023-07-20T12:38:35;1.65;;;1.50;;
20324;SDS011;10320;49.482;11.256;2023-07-20T12:41:01;1.45;;;1.33;;
20324;SDS011;10320;49.482;11.256;2023-07-20T12:43:27;1.98;;;1.30;;
20324;SDS011;10320;49.482;11.256;2023-07-20T12:45:54;5.72;;;1.60;;
20324;SDS011;10320;49.482;11.256;2023-07-20T12:48:21;1.83;;;1.35;;
20324;SDS011;10320;49.482;11.256;2023-07-20T12:50:47;3.55;;;1.65;;
20324;SDS011;10320;49.482;11.256;2023-07-20T12:53:12;1.98;;;1.30;;
20324;SDS011;10320;49.482;11.256;2023-07-20T12:55:38;1.95;;;1.25;;
20324;SDS011;10320;49.482;11.256;2023-07-20T12:58:05;1.30;;;1.20;;
20324;SDS011;10320;49.482;11.256;2023-07-20T13:00:31;2.45;;;1.30;;
20324;SDS011;10320;49.482;11.256;2023-07-20T13:02:57;2.08;;;1.30;;
20324;SDS011;10320;49.482;11.256;2023-07-20T13:05:23;1.40;;;1.30;;
20324;SDS011;10320;49.482;11.256;2023-07-20T13:07:49;1.80;;;1.45;;
20324;SDS011;10320;49.482;11.256;2023-07-20T13:10:15;1.52;;;1.40;;
20324;SDS011;10320;49.482;11.256;2023-07-20T13:12:40;1.83;;;1.40;;
20324;SDS011;10320;49.482;11.256;2023-07-20T13:15:07;1.80;;;1.50;;
20324;SDS011;10320;49.482;11.256;2023-07-20T13:17:34;2.03;;;1.52;;
20324;SDS011;10320;49.482;11.256;2023-07-20T13:20:00;1.42;;;1.30;;
20324;SDS011;10320;49.482;11.256;2023-07-20T13:22:26;1.52;;;1.42;;
20324;SDS011;10320;49.482;11.256;2023-07-20T13:24:52;1.60;;;1.50;;
20324;SDS011;10320;49.482;11.256;2023-07-20T13:27:18;1.40;;;1.30;;
20324;SDS011;10320;49.482;11.256;2023-07-20T13:29:44;2.22;;;1.40;;
20324;SDS011;10320;49.482;11.256;2023-07-20T13:32:14;1.70;;;1.50;;
20324;SDS011;10320;49.482;11.256;2023-07-20T13:34:40;2.25;;;1.80;;
20324;SDS011;10320;49.482;11.256;2023-07-20T13:37:06;2.40;;;1.30;;
20324;SDS011;10320;49.482;11.256;2023-07-20T13:39:33;1.45;;;1.30;;
20324;SDS011;10320;49.482;11.256;2023-07-20T13:41:59;2.13;;;1.20;;
20324;SDS011;10320;49.482;11.256;2023-07-20T13:44:27;1.50;;;1.40;;
20324;SDS011;10320;49.482;11.256;2023-07-20T13:46:53;2.13;;;1.33;;
20324;SDS011;10320;49.482;11.256;2023-07-20T13:49:18;1.60;;;1.50;;
20324;SDS011;10320;49.482;11.256;2023-07-20T13:51:44;1.40;;;1.15;;
20324;SDS011;10320;49.482;11.256;2023-07-20T13:54:09;4.35;;;1.50;;
20324;SDS011;10320;49.482;11.256;2023-07-20T13:56:36;1.73;;;1.20;;
20324;SDS011;10320;49.482;11.256;2023-07-20T13:59:02;2.20;;;1.45;;
20324;SDS011;10320;49.482;11.256;2023-07-20T14:01:28;1.50;;;1.10;;
20324;SDS011;10320;49.482;11.256;2023-07-20T14:03:55;1.40;;;1.30;;
20324;SDS011;10320;49.482;11.256;2023-07-20T14:06:21;1.85;;;1.45;;
20324;SDS011;10320;49.482;11.256;2023-07-20T14:08:47;2.15;;;1.23;;
20324;SDS011;10320;49.482;11.256;2023-07-20T14:11:14;1.73;;;1.20;;
20324;SDS011;10320;49.482;11.256;2023-07-20T14:13:40;1.88;;;1.40;;
20324;SDS011;10320;49.482;11.256;2023-07-20T14:16:05;1.50;;;1.38;;
20324;SDS011;10320;49.482;11.256;2023-07-20T14:18:31;2.33;;;2.15;;
20324;SDS011;10320;49.482;11.256;2023-07-20T14:20:57;2.35;;;1.55;;
20324;SDS011;10320;49.482;11.256;2023-07-20T14:23:23;1.33;;;1.20;;
20324;SDS011;10320;49.482;11.256;2023-07-20T14:25:48;1.98;;;1.60;;
20324;SDS011;10320;49.482;11.256;2023-07-20T14:28:14;2.47;;;1.60;;
20324;SDS011;10320;49.482;11.256;2023-07-20T14:30:41;1.52;;;1.42;;
20324;SDS011;10320;49.482;11.256;2023-07-20T14:33:06;1.77;;;1.50;;
20324;SDS011;10320;49.482;11.256;2023-07-20T14:35:32;1.52;;;1.42;;
20324;SDS011;10320;49.482;11.256;2023-07-20T14:37:59;2.30;;;1.40;;
20324;SDS011;10320;49.482;11.256;2023-07-20T14:40:25;1.60;;;1.50;;
20324;SDS011;10320;49.482;11.256;2023-07-20T14:42:50;2.30;;;1.50;;
20324;SDS011;10320;49.482;11.256;2023-07-20T14:45:17;1.70;;;1.50;;
20324;SDS011;10320;49.482;11.256;2023-07-20T14:47:43;1.40;;;1.30;;